Time;durP1;ratioP1;P1;durP2;ratioP2;P2;SDS_P1;SDS_P2;PMS_P1;PMS_P2;Temp;Humidity;BMP_temperature;BMP_pressure;BME280_temperature;BME280_humidity;BME280_pressure;Samples;Min_cycle;Max_cycle;Signal;HPM_P1;HPM_P2
2024/04/20 00:00:38;;;;;;;9.85;8.18;;;;;;;;;;5489031;26;20466;-80
2024/04/20 00:03:04;;;;;;;8.48;7.75;;;;;;;;;;5486406;26;20321;-81
2024/04/20 00:05:30;;;;;;;7.55;6.90;;;;;;;;;;5492777;26;20872;-81
2024/04/20 00:07:56;;;;;;;12.77;7.80;;;;;;;;;;5491833;26;20336;-81
2024/04/20 00:10:22;;;;;;;10.83;7.83;;;;;;;;;;5482597;26;20515;-81
2024/04/20 00:12:48;;;;;;;8.32;7.60;;;;;;;;;;5480454;26;20864;-81
2024/04/20 00:15:15;;;;;;;9.30;7.23;;;;;;;;;;5483580;26;20344;-81
2024/04/20 00:17:41;;;;;;;8.73;7.97;;;;;;;;;;5491302;26;20510;-81
2024/04/20 00:20:07;;;;;;;10.13;7.75;;;;;;;;;;5487646;26;20232;-81
2024/04/20 00:22:33;;;;;;;10.60;8.40;;;;;;;;;;5484644;26;20247;-81
2024/04/20 00:24:59;;;;;;;9.43;8.82;;;;;;;;;;5494123;26;20716;-81
2024/04/20 00:27:25;;;;;;;10.60;9.60;;;;;;;;;;5470369;26;20236;-82
2024/04/20 00:29:51;;;;;;;10.23;9.27;;;;;;;;;;5474961;26;20479;-81
2024/04/20 00:32:17;;;;;;;12.68;10.05;;;;;;;;;;5472611;26;20241;-82
2024/04/20 00:34:43;;;;;;;16.27;9.15;;;;;;;;;;5475883;26;20367;-82
2024/04/20 00:37:09;;;;;;;9.57;8.47;;;;;;;;;;5480600;26;20250;-81
2024/04/20 00:39:35;;;;;;;9.55;8.35;;;;;;;;;;5490754;26;20918;-81
2024/04/20 00:42:02;;;;;;;12.48;8.55;;;;;;;;;;5492215;26;20240;-82
2024/04/20 00:44:28;;;;;;;9.18;8.38;;;;;;;;;;5486156;26;20872;-81
2024/04/20 00:47:03;;;;;;;12.15;8.50;;;;;;;;;;5474796;26;20921;-82
2024/04/20 00:49:33;;;;;;;9.52;8.32;;;;;;;;;;5446154;26;20755;-81
2024/04/20 00:52:00;;;;;;;13.57;9.23;;;;;;;;;;5493480;26;20608;-80
2024/04/20 00:54:27;;;;;;;8.57;7.93;;;;;;;;;;5444630;26;20239;-81
2024/04/20 00:56:54;;;;;;;11.00;7.60;;;;;;;;;;5487566;26;20275;-81
2024/04/20 00:59:21;;;;;;;8.82;8.07;;;;;;;;;;5487061;26;20291;-81
2024/04/20 01:01:47;;;;;;;8.20;7.60;;;;;;;;;;5486164;26;20246;-80
2024/04/20 01:04:13;;;;;;;8.13;7.53;;;;;;;;;;5489909;26;20328;-80
2024/04/20 01:06:39;;;;;;;10.37;8.00;;;;;;;;;;5493337;26;20455;-80
2024/04/20 01:09:05;;;;;;;8.87;7.93;;;;;;;;;;5485990;26;20466;-80
2024/04/20 01:11:31;;;;;;;8.80;8.20;;;;;;;;;;5491571;26;20467;-80
2024/04/20 01:13:57;;;;;;;7.70;7.03;;;;;;;;;;5479524;26;20467;-80
2024/04/20 01:16:23;;;;;;;11.52;7.93;;;;;;;;;;5489452;26;20501;-81
2024/04/20 01:18:49;;;;;;;8.43;7.70;;;;;;;;;;5497911;26;20236;-80
2024/04/20 01:21:15;;;;;;;8.03;7.43;;;;;;;;;;5490567;26;20333;-80
2024/04/20 01:23:44;;;;;;;10.80;8.10;;;;;;;;;;5475349;26;20453;-81
2024/04/20 01:26:10;;;;;;;9.85;7.90;;;;;;;;;;5493494;26;20701;-81
2024/04/20 01:28:36;;;;;;;7.68;7.18;;;;;;;;;;5495066;26;20228;-81
2024/04/20 01:31:02;;;;;;;8.82;8.13;;;;;;;;;;5489844;26;20279;-80
2024/04/20 01:33:28;;;;;;;10.13;7.68;;;;;;;;;;5476805;26;20233;-80
2024/04/20 01:35:54;;;;;;;8.68;7.95;;;;;;;;;;5481778;26;20240;-80
2024/04/20 01:38:20;;;;;;;9.70;8.17;;;;;;;;;;5491207;26;20232;-81
2024/04/20 01:40:46;;;;;;;8.55;7.90;;;;;;;;;;5490712;26;20860;-81
2024/04/20 01:43:12;;;;;;;14.17;7.53;;;;;;;;;;5478729;26;20271;-81
2024/04/20 01:45:38;;;;;;;9.57;8.60;;;;;;;;;;5474999;26;20521;-81
2024/04/20 01:48:04;;;;;;;9.13;8.30;;;;;;;;;;5490094;26;20236;-81
2024/04/20 01:50:31;;;;;;;9.95;8.23;;;;;;;;;;5491540;26;20502;-81
2024/04/20 01:52:57;;;;;;;8.75;7.90;;;;;;;;;;5482940;26;20249;-80
2024/04/20 01:55:23;;;;;;;9.73;7.20;;;;;;;;;;5471125;26;20234;-80
2024/04/20 01:57:49;;;;;;;8.60;8.00;;;;;;;;;;5487784;26;20462;-81
2024/04/20 02:00:15;;;;;;;11.85;7.65;;;;;;;;;;5488000;26;20502;-81
2024/04/20 02:02:41;;;;;;;11.70;8.15;;;;;;;;;;5469814;26;20599;-81
2024/04/20 02:05:07;;;;;;;11.63;8.50;;;;;;;;;;5491439;26;20240;-81
2024/04/20 02:07:33;;;;;;;8.43;7.55;;;;;;;;;;5485538;26;20461;-81
2024/04/20 02:10:00;;;;;;;8.37;7.53;;;;;;;;;;5475747;26;20248;-81
2024/04/20 02:12:26;;;;;;;9.13;7.28;;;;;;;;;;5491320;26;20457;-80
2024/04/20 02:14:52;;;;;;;9.30;8.10;;;;;;;;;;5484816;26;20356;-80
2024/04/20 02:17:18;;;;;;;10.85;7.53;;;;;;;;;;5485250;26;20241;-81
2024/04/20 02:19:45;;;;;;;8.57;7.40;;;;;;;;;;5494876;26;20360;-81
2024/04/20 02:22:11;;;;;;;7.80;7.00;;;;;;;;;;5486247;26;20450;-80
2024/04/20 02:24:37;;;;;;;7.70;7.20;;;;;;;;;;5493643;26;20309;-81
2024/04/20 02:27:03;;;;;;;7.57;7.07;;;;;;;;;;5486727;26;20447;-80
2024/04/20 02:29:29;;;;;;;8.30;6.60;;;;;;;;;;5475835;26;20283;-81
2024/04/20 02:31:55;;;;;;;6.87;6.47;;;;;;;;;;5491129;26;20356;-81
2024/04/20 02:34:21;;;;;;;7.38;6.53;;;;;;;;;;5493772;26;20454;-81
2024/04/20 02:36:47;;;;;;;7.60;7.00;;;;;;;;;;5477981;26;20318;-81
2024/04/20 02:39:13;;;;;;;7.87;6.87;;;;;;;;;;5481529;26;20241;-81
2024/04/20 02:41:39;;;;;;;8.50;7.33;;;;;;;;;;5495829;26;20788;-81
2024/04/20 02:44:05;;;;;;;7.87;7.27;;;;;;;;;;5494738;26;20454;-81
2024/04/20 02:46:32;;;;;;;8.00;7.23;;;;;;;;;;5476501;26;20539;-81
2024/04/20 02:48:58;;;;;;;8.20;7.50;;;;;;;;;;5489725;26;20459;-81
2024/04/20 02:51:24;;;;;;;6.63;6.18;;;;;;;;;;5489899;26;20301;-81
2024/04/20 02:53:50;;;;;;;7.03;6.63;;;;;;;;;;5494138;26;20232;-81
2024/04/20 02:56:16;;;;;;;7.30;6.60;;;;;;;;;;5449395;26;20475;-80
2024/04/20 02:58:42;;;;;;;7.50;7.00;;;;;;;;;;5484780;26;20462;-80
2024/04/20 03:01:09;;;;;;;8.60;7.10;;;;;;;;;;5492362;26;20458;-80
2024/04/20 03:03:37;;;;;;;7.35;6.85;;;;;;;;;;5489716;26;20595;-81
2024/04/20 03:06:03;;;;;;;8.80;7.78;;;;;;;;;;5472013;26;20271;-80
2024/04/20 03:08:29;;;;;;;7.90;7.15;;;;;;;;;;5472680;26;20562;-81
2024/04/20 03:10:55;;;;;;;10.93;7.67;;;;;;;;;;5482119;26;20312;-80
2024/04/20 03:13:21;;;;;;;8.70;8.10;;;;;;;;;;5484056;26;20495;-81
2024/04/20 03:15:47;;;;;;;9.97;7.17;;;;;;;;;;5488752;26;20464;-81
2024/04/20 03:18:13;;;;;;;11.03;7.60;;;;;;;;;;5473064;26;20466;-80
2024/04/20 03:20:39;;;;;;;11.00;6.90;;;;;;;;;;5492249;26;20469;-81
2024/04/20 03:23:05;;;;;;;7.67;6.97;;;;;;;;;;5492485;26;20502;-80
2024/04/20 03:25:31;;;;;;;8.27;7.77;;;;;;;;;;5492350;26;20797;-81
2024/04/20 03:27:57;;;;;;;8.93;7.47;;;;;;;;;;5482780;26;20455;-81
2024/04/20 03:30:23;;;;;;;7.53;6.80;;;;;;;;;;5490248;26;20569;-81
2024/04/20 03:32:49;;;;;;;8.25;7.15;;;;;;;;;;5467123;26;20454;-80
2024/04/20 03:35:15;;;;;;;7.23;6.73;;;;;;;;;;5484747;26;20237;-81
2024/04/20 03:37:41;;;;;;;11.25;8.32;;;;;;;;;;5486053;26;20474;-81
2024/04/20 03:40:07;;;;;;;16.77;8.27;;;;;;;;;;5490708;26;20322;-81
2024/04/20 03:42:33;;;;;;;7.55;7.05;;;;;;;;;;5491096;26;20543;-81
2024/04/20 03:44:59;;;;;;;8.88;7.50;;;;;;;;;;5480238;26;20287;-81
2024/04/20 03:47:25;;;;;;;6.97;6.47;;;;;;;;;;5480650;26;20272;-81
2024/04/20 03:49:52;;;;;;;8.30;7.50;;;;;;;;;;5486863;26;20787;-81
2024/04/20 03:52:18;;;;;;;9.77;8.85;;;;;;;;;;5442906;26;20299;-80
2024/04/20 03:54:44;;;;;;;7.70;7.10;;;;;;;;;;5483916;26;20340;-80
2024/04/20 03:57:10;;;;;;;8.37;7.67;;;;;;;;;;5493174;26;20512;-81
2024/04/20 03:59:36;;;;;;;8.20;7.43;;;;;;;;;;5491084;26;20515;-81
2024/04/20 04:02:02;;;;;;;8.32;7.50;;;;;;;;;;5484757;26;20579;-81
2024/04/20 04:04:28;;;;;;;8.02;7.32;;;;;;;;;;5488048;26;20275;-81
2024/04/20 04:06:54;;;;;;;9.88;7.10;;;;;;;;;;5483660;26;20246;-81
2024/04/20 04:09:20;;;;;;;7.97;7.27;;;;;;;;;;5493254;26;20276;-81
2024/04/20 04:11:46;;;;;;;13.03;8.50;;;;;;;;;;5478453;26;20459;-82
2024/04/20 04:14:12;;;;;;;11.27;7.00;;;;;;;;;;5476598;26;20469;-81
2024/04/20 04:16:38;;;;;;;10.73;7.80;;;;;;;;;;5485788;26;20450;-81
2024/04/20 04:19:04;;;;;;;8.47;7.77;;;;;;;;;;5492417;26;20518;-81
2024/04/20 04:21:34;;;;;;;9.90;8.93;;;;;;;;;;5473445;26;20501;-81
2024/04/20 04:24:00;;;;;;;9.23;7.25;;;;;;;;;;5467738;26;21030;-81
2024/04/20 04:26:26;;;;;;;8.65;7.65;;;;;;;;;;5486968;26;20245;-81
2024/04/20 04:28:52;;;;;;;14.23;8.23;;;;;;;;;;5489505;26;20248;-81
2024/04/20 04:31:22;;;;;;;8.57;7.93;;;;;;;;;;5453057;26;20565;-81
2024/04/20 04:33:48;;;;;;;8.05;7.45;;;;;;;;;;5472650;26;20798;-81
2024/04/20 04:36:14;;;;;;;8.23;7.43;;;;;;;;;;5467324;26;20280;-81
2024/04/20 04:38:40;;;;;;;8.13;7.53;;;;;;;;;;5492344;26;20557;-81
2024/04/20 04:41:06;;;;;;;10.47;8.30;;;;;;;;;;5492210;26;21013;-81
2024/04/20 04:43:32;;;;;;;9.57;7.90;;;;;;;;;;5489114;26;20514;-80
2024/04/20 04:45:58;;;;;;;8.55;7.70;;;;;;;;;;5488542;26;20553;-81
2024/04/20 04:48:26;;;;;;;10.67;8.40;;;;;;;;;;5490416;26;20240;-82
2024/04/20 04:50:52;;;;;;;11.90;9.98;;;;;;;;;;5478854;26;20539;-83
2024/04/20 04:53:18;;;;;;;10.63;9.60;;;;;;;;;;5486816;26;20795;-83
2024/04/20 04:55:44;;;;;;;9.90;9.20;;;;;;;;;;5487851;26;20464;-83
2024/04/20 04:58:10;;;;;;;10.65;9.77;;;;;;;;;;5492118;26;20279;-82
2024/04/20 05:00:37;;;;;;;10.67;9.80;;;;;;;;;;5491721;26;20543;-83
2024/04/20 05:03:04;;;;;;;12.43;10.27;;;;;;;;;;5492265;26;21094;-83
2024/04/20 05:05:31;;;;;;;11.27;10.30;;;;;;;;;;5484721;26;20771;-83
2024/04/20 05:07:57;;;;;;;11.65;10.95;;;;;;;;;;5491823;26;20228;-84
2024/04/20 05:10:24;;;;;;;10.88;10.23;;;;;;;;;;5485891;26;20283;-84
2024/04/20 05:12:50;;;;;;;13.30;12.60;;;;;;;;;;5502822;26;20270;-85
2024/04/20 05:15:17;;;;;;;13.52;12.43;;;;;;;;;;5450574;26;20237;-85
2024/04/20 05:17:43;;;;;;;14.00;13.00;;;;;;;;;;5455011;26;20241;-85
2024/04/20 05:20:09;;;;;;;13.60;12.65;;;;;;;;;;5486004;26;20280;-85
2024/04/20 05:22:35;;;;;;;10.63;10.07;;;;;;;;;;5488433;26;20237;-85
2024/04/20 05:25:01;;;;;;;12.82;12.13;;;;;;;;;;5482525;26;20291;-87
2024/04/20 05:27:27;;;;;;;12.20;11.60;;;;;;;;;;5450762;26;20567;-87
2024/04/20 05:29:53;;;;;;;12.00;11.20;;;;;;;;;;5488106;26;20508;-87
2024/04/20 05:32:19;;;;;;;13.00;12.10;;;;;;;;;;5489301;26;20478;-87
2024/04/20 05:34:45;;;;;;;11.80;11.30;;;;;;;;;;5490431;26;20455;-87
2024/04/20 05:37:11;;;;;;;12.15;11.40;;;;;;;;;;5452518;26;20327;-87
2024/04/20 05:39:37;;;;;;;12.90;11.98;;;;;;;;;;5486953;26;20787;-87
2024/04/20 05:42:03;;;;;;;12.20;11.60;;;;;;;;;;5486182;26;20308;-87
2024/04/20 05:44:29;;;;;;;13.20;12.30;;;;;;;;;;5488445;26;20272;-86
2024/04/20 05:46:58;;;;;;;12.60;11.80;;;;;;;;;;5476489;26;20269;-85
2024/04/20 05:49:24;;;;;;;13.27;12.20;;;;;;;;;;5453399;26;20240;-87
2024/04/20 05:51:50;;;;;;;14.70;13.50;;;;;;;;;;5485417;26;20242;-85
2024/04/20 05:54:16;;;;;;;14.97;13.73;;;;;;;;;;5488764;26;20586;-86
2024/04/20 05:56:42;;;;;;;18.58;12.73;;;;;;;;;;5482520;26;20528;-85
2024/04/20 05:59:08;;;;;;;13.50;12.30;;;;;;;;;;5460939;26;20233;-84
2024/04/20 06:01:34;;;;;;;14.10;12.90;;;;;;;;;;5496304;26;20277;-84
2024/04/20 06:04:00;;;;;;;13.47;12.37;;;;;;;;;;5510032;26;20608;-84
2024/04/20 06:06:26;;;;;;;14.67;13.50;;;;;;;;;;5505190;26;20525;-83
2024/04/20 06:08:52;;;;;;;14.10;12.80;;;;;;;;;;5496752;26;20450;-84
2024/04/20 06:11:18;;;;;;;13.23;12.03;;;;;;;;;;5480128;26;20568;-84
2024/04/20 06:13:44;;;;;;;12.70;11.80;;;;;;;;;;5428192;26;20526;-84
2024/04/20 06:16:10;;;;;;;14.52;12.82;;;;;;;;;;5494232;26;20244;-84
2024/04/20 06:18:36;;;;;;;13.82;12.70;;;;;;;;;;5489576;26;20270;-83
2024/04/20 06:21:02;;;;;;;14.07;12.80;;;;;;;;;;5488266;26;20245;-83
2024/04/20 06:23:28;;;;;;;12.57;11.63;;;;;;;;;;5483878;26;20984;-83
2024/04/20 06:25:54;;;;;;;18.03;12.50;;;;;;;;;;5495321;26;20332;-84
2024/04/20 06:28:20;;;;;;;14.03;12.93;;;;;;;;;;5479899;26;20791;-84
2024/04/20 06:30:47;;;;;;;13.00;11.88;;;;;;;;;;5483359;26;20511;-84
2024/04/20 06:33:13;;;;;;;12.23;11.30;;;;;;;;;;5492666;26;20556;-83
2024/04/20 06:35:39;;;;;;;12.60;11.60;;;;;;;;;;5493601;26;20279;-83
2024/04/20 06:38:05;;;;;;;12.47;11.50;;;;;;;;;;5485157;26;20576;-84
2024/04/20 06:40:31;;;;;;;12.60;11.60;;;;;;;;;;5481113;26;20521;-83
2024/04/20 06:42:57;;;;;;;12.83;11.77;;;;;;;;;;5448181;26;20246;-84
2024/04/20 06:45:23;;;;;;;11.83;11.00;;;;;;;;;;5476335;26;20458;-84
2024/04/20 06:47:49;;;;;;;10.50;9.60;;;;;;;;;;5487053;26;20503;-83
2024/04/20 06:50:18;;;;;;;10.77;10.07;;;;;;;;;;5491958;26;20582;-83
2024/04/20 06:52:44;;;;;;;15.60;10.95;;;;;;;;;;5476341;26;20238;-90
2024/04/20 06:55:10;;;;;;;13.30;11.95;;;;;;;;;;5457492;26;20284;-88
2024/04/20 06:57:36;;;;;;;11.02;10.13;;;;;;;;;;5435642;26;20776;-87
2024/04/20 07:00:02;;;;;;;10.98;10.07;;;;;;;;;;5466118;26;20240;-81
2024/04/20 07:02:28;;;;;;;11.68;10.88;;;;;;;;;;5494262;26;20233;-81
2024/04/20 07:04:55;;;;;;;11.83;9.57;;;;;;;;;;5480785;26;20287;-81
2024/04/20 07:07:21;;;;;;;15.15;9.85;;;;;;;;;;5489613;26;20458;-80
2024/04/20 07:09:48;;;;;;;10.43;9.38;;;;;;;;;;5491075;26;20294;-80
2024/04/20 07:12:14;;;;;;;10.85;9.93;;;;;;;;;;5456757;26;20281;-80
2024/04/20 07:14:40;;;;;;;10.18;9.02;;;;;;;;;;5485064;26;20284;-79
2024/04/20 07:17:06;;;;;;;14.27;10.45;;;;;;;;;;5481855;26;20241;-80
2024/04/20 07:19:32;;;;;;;10.47;9.40;;;;;;;;;;5493648;26;20228;-81
2024/04/20 07:21:59;;;;;;;13.50;9.73;;;;;;;;;;5492406;26;20845;-82
2024/04/20 07:24:25;;;;;;;10.27;8.75;;;;;;;;;;5488796;26;20279;-81
2024/04/20 07:26:51;;;;;;;9.23;8.70;;;;;;;;;;5487787;26;20237;-81
2024/04/20 07:29:17;;;;;;;9.70;8.95;;;;;;;;;;5490765;26;20236;-82
2024/04/20 07:31:45;;;;;;;9.00;8.20;;;;;;;;;;5489097;26;20245;-82
2024/04/20 07:34:11;;;;;;;10.00;8.50;;;;;;;;;;5486652;26;20233;-81
2024/04/20 07:36:37;;;;;;;9.77;8.70;;;;;;;;;;5491417;26;20291;-82
2024/04/20 07:39:03;;;;;;;9.63;8.80;;;;;;;;;;5497916;26;20272;-81
2024/04/20 07:41:29;;;;;;;10.47;9.07;;;;;;;;;;5481155;26;20601;-81
2024/04/20 07:43:57;;;;;;;13.20;8.60;;;;;;;;;;5493359;26;20627;-80
2024/04/20 07:46:23;;;;;;;8.70;8.30;;;;;;;;;;5490159;26;20580;-81
2024/04/20 07:48:49;;;;;;;10.07;9.03;;;;;;;;;;5455215;26;20235;-83
2024/04/20 07:51:15;;;;;;;9.60;8.65;;;;;;;;;;5485603;26;20458;-81
2024/04/20 07:53:41;;;;;;;9.40;8.60;;;;;;;;;;5478095;26;20235;-81
2024/04/20 07:56:07;;;;;;;8.77;8.27;;;;;;;;;;5491681;26;20278;-81
2024/04/20 07:58:33;;;;;;;9.40;8.83;;;;;;;;;;5492698;26;20459;-81
2024/04/20 08:00:59;;;;;;;10.20;8.67;;;;;;;;;;5492095;26;20547;-81
2024/04/20 08:03:25;;;;;;;9.67;8.77;;;;;;;;;;5493487;26;20450;-82
2024/04/20 08:05:51;;;;;;;10.05;9.15;;;;;;;;;;5459821;26;20517;-81
2024/04/20 08:08:17;;;;;;;9.60;8.80;;;;;;;;;;5481290;26;20276;-81
2024/04/20 08:10:43;;;;;;;9.88;9.10;;;;;;;;;;5487175;26;20233;-81
2024/04/20 08:13:09;;;;;;;15.63;9.20;;;;;;;;;;5494737;26;20240;-81
2024/04/20 08:15:35;;;;;;;9.65;8.93;;;;;;;;;;5490710;26;20457;-80
2024/04/20 08:18:01;;;;;;;10.13;9.20;;;;;;;;;;5493259;26;20245;-81
2024/04/20 08:20:27;;;;;;;9.50;8.80;;;;;;;;;;5476363;26;20450;-82
2024/04/20 08:22:53;;;;;;;9.93;9.10;;;;;;;;;;5479861;26;20629;-81
2024/04/20 08:25:19;;;;;;;10.10;9.40;;;;;;;;;;5484033;26;20997;-81
2024/04/20 08:27:45;;;;;;;9.73;8.90;;;;;;;;;;5490105;26;20995;-80
2024/04/20 08:30:11;;;;;;;10.10;9.30;;;;;;;;;;5489261;26;20452;-80
2024/04/20 08:32:37;;;;;;;9.75;8.93;;;;;;;;;;5489914;26;20454;-81
2024/04/20 08:35:03;;;;;;;9.57;8.70;;;;;;;;;;5489882;26;20336;-81
2024/04/20 08:37:29;;;;;;;10.52;9.68;;;;;;;;;;5489353;26;20774;-81
2024/04/20 08:39:55;;;;;;;9.20;8.60;;;;;;;;;;5494408;26;20241;-81
2024/04/20 08:42:34;;;;;;;9.10;8.40;;;;;;;;;;5454993;26;20450;-81
2024/04/20 08:45:03;;;;;;;11.85;9.95;;;;;;;;;;5472613;26;20578;-81
2024/04/20 08:47:32;;;;;;;8.43;7.80;;;;;;;;;;5485328;26;20242;-81
2024/04/20 08:49:59;;;;;;;10.00;9.15;;;;;;;;;;5483175;26;20232;-81
2024/04/20 08:52:28;;;;;;;9.77;7.95;;;;;;;;;;5452433;26;20575;-81
2024/04/20 08:54:57;;;;;;;9.13;8.27;;;;;;;;;;5468275;26;20282;-81
2024/04/20 08:57:24;;;;;;;10.02;7.15;;;;;;;;;;5479700;26;20240;-80
2024/04/20 08:59:51;;;;;;;16.23;7.30;;;;;;;;;;5478175;26;20258;-81
2024/04/20 09:02:26;;;;;;;8.75;7.70;;;;;;;;;;5488609;26;20629;-81
2024/04/20 09:04:53;;;;;;;8.95;7.55;;;;;;;;;;5489576;26;20330;-81
2024/04/20 09:07:20;;;;;;;8.38;7.78;;;;;;;;;;5480402;26;20241;-81
2024/04/20 09:09:46;;;;;;;8.60;8.10;;;;;;;;;;5491179;26;20276;-80
2024/04/20 09:12:12;;;;;;;9.02;8.15;;;;;;;;;;5484228;26;20784;-81
2024/04/20 09:14:38;;;;;;;7.80;7.10;;;;;;;;;;5492211;26;20289;-80
2024/04/20 09:17:04;;;;;;;8.23;7.60;;;;;;;;;;5499473;26;20453;-82
2024/04/20 09:19:30;;;;;;;9.50;8.65;;;;;;;;;;5490954;26;20874;-80
2024/04/20 09:22:09;;;;;;;8.85;8.25;;;;;;;;;;5489036;26;20263;-81
2024/04/20 09:24:36;;;;;;;8.32;7.68;;;;;;;;;;5492642;26;20236;-81
2024/04/20 09:27:02;;;;;;;8.32;7.82;;;;;;;;;;5492030;26;20731;-80
2024/04/20 09:29:28;;;;;;;8.57;7.97;;;;;;;;;;5475819;26;20244;-80
2024/04/20 09:31:54;;;;;;;7.75;7.03;;;;;;;;;;5492308;26;20243;-80
2024/04/20 09:34:23;;;;;;;7.53;6.95;;;;;;;;;;5493908;26;20283;-80
2024/04/20 09:36:49;;;;;;;7.40;6.85;;;;;;;;;;5488109;26;20288;-80
2024/04/20 09:39:15;;;;;;;8.32;7.60;;;;;;;;;;5481532;26;20424;-80
2024/04/20 09:41:47;;;;;;;7.60;6.90;;;;;;;;;;5473734;26;20616;-80
2024/04/20 09:44:15;;;;;;;7.30;6.47;;;;;;;;;;5485915;26;20519;-80
2024/04/20 09:46:41;;;;;;;8.15;7.43;;;;;;;;;;5494744;26;20283;-80
2024/04/20 09:49:08;;;;;;;8.15;7.30;;;;;;;;;;5485135;26;20233;-80
2024/04/20 09:51:54;;;;;;;13.27;8.32;;;;;;;;;;5485393;26;20850;-80
2024/04/20 09:54:25;;;;;;;6.80;6.35;;;;;;;;;;5479373;26;20262;-80
2024/04/20 09:56:52;;;;;;;7.63;7.00;;;;;;;;;;5461227;26;20275;-80
2024/04/20 09:59:19;;;;;;;6.18;5.70;;;;;;;;;;5490808;26;20233;-79
2024/04/20 10:01:46;;;;;;;6.40;6.00;;;;;;;;;;5487895;26;20287;-80
2024/04/20 10:04:12;;;;;;;8.70;8.20;;;;;;;;;;5491455;26;20283;-80
2024/04/20 10:06:40;;;;;;;9.05;8.25;;;;;;;;;;5495494;26;20279;-80
2024/04/20 10:09:10;;;;;;;7.32;6.60;;;;;;;;;;5493718;26;20232;-80
2024/04/20 10:11:37;;;;;;;8.82;8.02;;;;;;;;;;5492690;26;20275;-80
2024/04/20 10:14:06;;;;;;;9.48;8.75;;;;;;;;;;5492853;26;20236;-81
2024/04/20 10:16:32;;;;;;;9.00;8.20;;;;;;;;;;5487924;26;20225;-81
2024/04/20 10:18:58;;;;;;;8.32;7.72;;;;;;;;;;5475099;26;20238;-80
2024/04/20 10:21:24;;;;;;;8.88;7.82;;;;;;;;;;5483510;26;20225;-80
2024/04/20 10:23:50;;;;;;;7.00;6.60;;;;;;;;;;5493337;26;20252;-81
2024/04/20 10:26:29;;;;;;;7.10;6.50;;;;;;;;;;5493000;26;20241;-79
2024/04/20 10:29:08;;;;;;;8.60;7.68;;;;;;;;;;5488016;26;20514;-80
2024/04/20 10:31:34;;;;;;;6.68;6.25;;;;;;;;;;5484617;26;20373;-81
2024/04/20 10:34:00;;;;;;;6.75;6.15;;;;;;;;;;5493048;26;20348;-80
2024/04/20 10:36:26;;;;;;;6.30;5.80;;;;;;;;;;5492013;26;20244;-80
2024/04/20 10:39:04;;;;;;;5.90;5.40;;;;;;;;;;5478012;26;20866;-80
2024/04/20 10:41:36;;;;;;;6.17;5.37;;;;;;;;;;5491806;26;20505;-82
2024/04/20 10:44:15;;;;;;;6.13;5.53;;;;;;;;;;5488488;26;20485;-81
2024/04/20 10:46:49;;;;;;;8.10;5.85;;;;;;;;;;5485609;26;20473;-80
2024/04/20 10:49:15;;;;;;;8.27;5.43;;;;;;;;;;5484524;26;20624;-81
2024/04/20 10:52:02;;;;;;;6.20;5.70;;;;;;;;;;5492075;26;20462;-81
2024/04/20 10:54:28;;;;;;;7.10;5.70;;;;;;;;;;5480761;26;20244;-81
2024/04/20 10:56:55;;;;;;;6.03;5.55;;;;;;;;;;5490884;26;20248;-81
2024/04/20 10:59:21;;;;;;;5.57;5.00;;;;;;;;;;5481881;26;20284;-82
2024/04/20 11:01:47;;;;;;;11.73;10.73;;;;;;;;;;5489240;26;20241;-84
2024/04/20 11:04:14;;;;;;;14.38;13.77;;;;;;;;;;5492286;26;20233;-89
2024/04/20 11:06:40;;;;;;;13.70;13.10;;;;;;;;;;5489798;26;20270;-88
2024/04/20 11:09:12;;;;;;;12.73;12.13;;;;;;;;;;5483264;26;20241;-87
2024/04/20 11:11:38;;;;;;;12.57;11.90;;;;;;;;;;5489284;26;20312;-87
2024/04/20 11:14:05;;;;;;;12.63;12.07;;;;;;;;;;5491979;26;20348;-87
2024/04/20 11:16:31;;;;;;;12.05;11.38;;;;;;;;;;5492266;26;20228;-87
2024/04/20 11:18:57;;;;;;;11.20;10.70;;;;;;;;;;5491366;26;20283;-87
2024/04/20 11:21:24;;;;;;;11.38;10.88;;;;;;;;;;5446538;26;20325;-86
2024/04/20 11:23:50;;;;;;;13.20;12.30;;;;;;;;;;5491389;26;20279;-86
2024/04/20 11:26:16;;;;;;;10.90;10.27;;;;;;;;;;5492555;26;20232;-85
2024/04/20 11:28:43;;;;;;;11.90;11.00;;;;;;;;;;5491550;26;20236;-86
2024/04/20 11:31:12;;;;;;;9.57;9.02;;;;;;;;;;5481455;26;20518;-83
2024/04/20 11:33:46;;;;;;;9.40;9.00;;;;;;;;;;5490206;26;20293;-82
2024/04/20 11:36:14;;;;;;;8.57;7.97;;;;;;;;;;5488863;26;20239;-82
2024/04/20 11:38:40;;;;;;;8.65;7.90;;;;;;;;;;5492221;26;20240;-81
2024/04/20 11:41:06;;;;;;;10.83;10.13;;;;;;;;;;5482125;26;20286;-82
2024/04/20 11:43:35;;;;;;;11.27;10.50;;;;;;;;;;5488651;26;21093;-82
2024/04/20 11:46:00;;;;;;;9.60;8.70;;;;;;;;;;5491963;26;20551;-82
2024/04/20 11:48:30;;;;;;;8.80;8.20;;;;;;;;;;5488460;26;20231;-82
2024/04/20 11:51:04;;;;;;;9.45;8.95;;;;;;;;;;5475845;26;20812;-81
2024/04/20 11:56:19;;;;;;;9.90;9.20;;;;;;;;;;5489811;26;20266;-81
2024/04/20 11:58:49;;;;;;;11.10;10.20;;;;;;;;;;5478778;26;20736;-81
2024/04/20 12:01:15;;;;;;;8.50;7.97;;;;;;;;;;5493302;26;20296;-81
2024/04/20 12:03:41;;;;;;;10.02;9.52;;;;;;;;;;5488523;26;20236;-81
2024/04/20 12:06:10;;;;;;;10.77;10.00;;;;;;;;;;5491949;26;20779;-81
2024/04/20 12:08:36;;;;;;;11.05;10.27;;;;;;;;;;5483144;26;20535;-82
2024/04/20 12:11:02;;;;;;;19.98;16.50;;;;;;;;;;5491207;26;20279;-88
2024/04/20 12:13:29;;;;;;;17.23;15.70;;;;;;;;;;5485702;26;20264;-85
2024/04/20 12:15:55;;;;;;;18.60;17.05;;;;;;;;;;5492330;26;20676;-87
2024/04/20 12:18:22;;;;;;;17.55;16.35;;;;;;;;;;5491825;26;20282;-88
2024/04/20 12:20:48;;;;;;;15.05;14.30;;;;;;;;;;5492304;26;20271;-89
2024/04/20 12:23:14;;;;;;;14.98;13.95;;;;;;;;;;5493057;26;20266;-88
2024/04/20 12:25:47;;;;;;;15.32;14.00;;;;;;;;;;5492030;26;20326;-88
2024/04/20 12:28:13;;;;;;;15.02;14.00;;;;;;;;;;5490536;26;20283;-87
2024/04/20 12:30:39;;;;;;;14.43;13.53;;;;;;;;;;5490598;26;20232;-87
2024/04/20 12:33:05;;;;;;;13.60;12.65;;;;;;;;;;5486486;26;20459;-87
2024/04/20 12:35:34;;;;;;;14.37;13.40;;;;;;;;;;5487520;26;20238;-86
2024/04/20 12:38:00;;;;;;;13.80;12.50;;;;;;;;;;5476696;26;20545;-86
2024/04/20 12:40:26;;;;;;;12.27;11.10;;;;;;;;;;5451429;26;20237;-84
2024/04/20 12:42:52;;;;;;;12.27;11.10;;;;;;;;;;5487460;26;20471;-84
2024/04/20 12:45:19;;;;;;;11.60;10.83;;;;;;;;;;5490519;26;20233;-85
2024/04/20 12:47:48;;;;;;;10.80;10.18;;;;;;;;;;5490067;26;20533;-83
2024/04/20 12:50:14;;;;;;;13.88;10.68;;;;;;;;;;5445309;26;20237;-83
2024/04/20 12:52:40;;;;;;;10.82;10.13;;;;;;;;;;5485583;26;20232;-82
2024/04/20 12:55:06;;;;;;;9.80;9.30;;;;;;;;;;5490750;26;20804;-82
2024/04/20 12:57:32;;;;;;;10.18;9.32;;;;;;;;;;5489715;26;20522;-82
2024/04/20 12:59:58;;;;;;;9.30;8.60;;;;;;;;;;5491614;26;20275;-81
2024/04/20 13:02:24;;;;;;;8.57;7.88;;;;;;;;;;5479042;26;20225;-80
2024/04/20 13:04:50;;;;;;;8.80;8.20;;;;;;;;;;5489458;26;20283;-80
2024/04/20 13:07:16;;;;;;;8.65;7.95;;;;;;;;;;5485586;26;20446;-80
2024/04/20 13:09:42;;;;;;;8.80;8.18;;;;;;;;;;5491145;26;20244;-80
2024/04/20 13:12:08;;;;;;;8.70;8.10;;;;;;;;;;5489843;26;20236;-81
2024/04/20 13:14:38;;;;;;;8.50;7.55;;;;;;;;;;5488137;26;20582;-81
2024/04/20 13:17:04;;;;;;;8.75;7.85;;;;;;;;;;5490634;26;20391;-80
2024/04/20 13:19:30;;;;;;;6.47;6.20;;;;;;;;;;5491197;26;20794;-80
2024/04/20 13:21:56;;;;;;;6.77;6.33;;;;;;;;;;5483503;26;20240;-80
2024/04/20 13:24:22;;;;;;;7.10;6.38;;;;;;;;;;5485715;26;20561;-81
2024/04/20 13:26:48;;;;;;;7.35;6.65;;;;;;;;;;5489973;26;20248;-80
2024/04/20 13:29:14;;;;;;;6.38;5.95;;;;;;;;;;5481146;26;20600;-81
2024/04/20 13:31:40;;;;;;;6.90;5.33;;;;;;;;;;5486043;26;20240;-80
2024/04/20 13:34:06;;;;;;;5.90;5.60;;;;;;;;;;5491277;26;21029;-80
2024/04/20 13:36:32;;;;;;;10.73;5.70;;;;;;;;;;5451060;26;20515;-80
2024/04/20 13:38:58;;;;;;;4.87;4.43;;;;;;;;;;5490110;26;20517;-81
2024/04/20 13:41:24;;;;;;;7.23;6.13;;;;;;;;;;5484381;26;20465;-80
2024/04/20 13:43:50;;;;;;;7.30;5.43;;;;;;;;;;5490586;26;20481;-80
2024/04/20 13:46:16;;;;;;;5.17;4.77;;;;;;;;;;5482690;26;20454;-80
2024/04/20 13:48:42;;;;;;;5.30;4.93;;;;;;;;;;5490365;26;20461;-80
2024/04/20 13:51:08;;;;;;;5.55;5.05;;;;;;;;;;5490977;26;20558;-81
2024/04/20 13:53:35;;;;;;;7.45;5.68;;;;;;;;;;5487313;26;20232;-80
2024/04/20 13:56:01;;;;;;;6.75;5.18;;;;;;;;;;5475860;26;20594;-80
2024/04/20 13:58:29;;;;;;;7.40;4.67;;;;;;;;;;5478285;26;20222;-81
2024/04/20 14:00:55;;;;;;;4.68;4.25;;;;;;;;;;5459510;26;20489;-81
2024/04/20 14:03:21;;;;;;;5.93;4.47;;;;;;;;;;5476453;26;20275;-82
2024/04/20 14:05:49;;;;;;;4.75;4.45;;;;;;;;;;5490175;26;20458;-82
2024/04/20 14:08:15;;;;;;;5.80;5.25;;;;;;;;;;5490371;26;20664;-82
2024/04/20 14:10:41;;;;;;;8.20;6.40;;;;;;;;;;5488651;26;20233;-82
2024/04/20 14:13:12;;;;;;;6.28;5.68;;;;;;;;;;5449783;26;20264;-82
2024/04/20 14:15:38;;;;;;;7.53;6.40;;;;;;;;;;5489402;26;20271;-82
2024/04/20 14:18:04;;;;;;;6.00;5.53;;;;;;;;;;5489841;26;20236;-81
2024/04/20 14:20:31;;;;;;;4.50;4.10;;;;;;;;;;5492046;26;20225;-82
2024/04/20 14:22:57;;;;;;;7.75;5.55;;;;;;;;;;5492161;26;20278;-81
2024/04/20 14:25:23;;;;;;;5.60;5.20;;;;;;;;;;5493515;26;20253;-81
2024/04/20 14:27:49;;;;;;;6.10;5.40;;;;;;;;;;5487624;26;20268;-80
2024/04/20 14:30:16;;;;;;;5.72;5.20;;;;;;;;;;5484266;26;20237;-80
2024/04/20 14:32:43;;;;;;;8.13;5.40;;;;;;;;;;5493788;26;20323;-80